Time;durP1;ratioP1;P1;durP2;ratioP2;P2;SDS_P1;SDS_P2;PMS_P1;PMS_P2;Temp;Humidity;BMP_temperature;BMP_pressure;BME280_temperature;BME280_humidity;BME280_pressure;Samples;Min_cycle;Max_cycle;Signal;HPM_P1;HPM_P2
2023/09/27 00:00:47;;;;;;;18.27;12.15;;;;;;;;;;4953300;28;20418;-62
2023/09/27 00:03:14;;;;;;;18.67;12.75;;;;;;;;;;4953559;28;20055;-63
2023/09/27 00:05:41;;;;;;;16.08;12.32;;;;;;;;;;4953745;28;20047;-62
2023/09/27 00:08:07;;;;;;;14.80;12.45;;;;;;;;;;4953428;28;20054;-63
2023/09/27 00:10:34;;;;;;;17.52;12.93;;;;;;;;;;4916956;28;1123301;-63
2023/09/27 00:13:02;;;;;;;20.85;13.48;;;;;;;;;;4967841;28;20129;-62
2023/09/27 00:15:30;;;;;;;17.50;12.45;;;;;;;;;;4954338;28;20070;-64
2023/09/27 00:17:58;;;;;;;16.98;11.95;;;;;;;;;;4967210;28;20131;-63
2023/09/27 00:20:25;;;;;;;18.30;12.43;;;;;;;;;;4966032;28;20145;-64
2023/09/27 00:22:54;;;;;;;17.58;12.18;;;;;;;;;;4963894;28;20043;-63
2023/09/27 00:25:21;;;;;;;14.75;12.30;;;;;;;;;;4958437;28;20487;-64
2023/09/27 00:27:48;;;;;;;15.98;12.05;;;;;;;;;;4966036;28;20138;-63
2023/09/27 00:30:16;;;;;;;16.55;12.38;;;;;;;;;;4973730;28;20046;-63
2023/09/27 00:32:44;;;;;;;15.95;11.75;;;;;;;;;;4968403;28;20047;-63
2023/09/27 00:35:14;;;;;;;15.40;11.30;;;;;;;;;;4968989;28;20047;-63
2023/09/27 00:37:41;;;;;;;17.58;13.18;;;;;;;;;;4953918;28;20055;-64
2023/09/27 00:40:10;;;;;;;15.05;11.20;;;;;;;;;;4964416;28;20054;-64
2023/09/27 00:42:37;;;;;;;16.98;11.98;;;;;;;;;;4966470;28;20101;-63
2023/09/27 00:45:05;;;;;;;17.05;12.00;;;;;;;;;;4968530;28;20039;-63
2023/09/27 00:47:34;;;;;;;16.65;12.70;;;;;;;;;;4965057;28;20048;-64
2023/09/27 00:50:01;;;;;;;15.68;11.48;;;;;;;;;;4966130;28;20047;-63
2023/09/27 00:52:28;;;;;;;16.75;11.70;;;;;;;;;;4967032;28;20073;-63
2023/09/27 00:54:56;;;;;;;14.02;10.82;;;;;;;;;;4966808;28;20463;-64
2023/09/27 00:57:23;;;;;;;16.13;11.68;;;;;;;;;;4953752;28;20110;-64
2023/09/27 00:59:50;;;;;;;14.75;10.88;;;;;;;;;;4953428;28;20134;-63
2023/09/27 01:02:17;;;;;;;16.20;11.00;;;;;;;;;;4953270;28;20051;-63
2023/09/27 01:04:46;;;;;;;14.52;10.93;;;;;;;;;;4953356;28;20078;-64
2023/09/27 01:07:12;;;;;;;14.55;10.77;;;;;;;;;;4953353;28;20054;-63
2023/09/27 01:09:39;;;;;;;14.60;10.93;;;;;;;;;;4953334;28;20051;-63
2023/09/27 01:12:07;;;;;;;14.48;10.90;;;;;;;;;;4952957;28;20048;-63
2023/09/27 01:14:34;;;;;;;14.40;10.50;;;;;;;;;;4953292;28;20051;-63
2023/09/27 01:17:09;;;;;;;13.90;10.57;;;;;;;;;;4955531;28;20082;-62
2023/09/27 01:19:36;;;;;;;12.98;10.88;;;;;;;;;;4963102;28;20471;-63
2023/09/27 01:22:04;;;;;;;14.45;11.18;;;;;;;;;;4957821;28;20432;-63
2023/09/27 01:24:35;;;;;;;13.13;9.80;;;;;;;;;;4953050;28;20054;-63
2023/09/27 01:27:03;;;;;;;14.90;11.25;;;;;;;;;;4952728;28;20134;-63
2023/09/27 01:29:30;;;;;;;17.90;10.15;;;;;;;;;;4952855;28;20047;-63
2023/09/27 01:31:57;;;;;;;13.88;10.27;;;;;;;;;;4953186;28;20491;-63
2023/09/27 01:34:23;;;;;;;12.25;9.57;;;;;;;;;;4965241;28;20049;-62
2023/09/27 01:36:51;;;;;;;14.32;9.90;;;;;;;;;;4964550;28;20082;-63
2023/09/27 01:39:18;;;;;;;13.40;10.13;;;;;;;;;;4964020;28;20050;-63
2023/09/27 01:41:46;;;;;;;15.27;10.63;;;;;;;;;;4972212;28;20074;-63
2023/09/27 01:44:12;;;;;;;12.73;9.77;;;;;;;;;;4964304;28;20134;-65
2023/09/27 01:46:39;;;;;;;13.30;10.65;;;;;;;;;;4952839;28;20044;-65
2023/09/27 01:49:06;;;;;;;15.00;11.23;;;;;;;;;;4967900;28;20058;-65
2023/09/27 01:51:32;;;;;;;14.30;10.77;;;;;;;;;;4958437;28;20126;-65
2023/09/27 01:53:59;;;;;;;14.20;10.30;;;;;;;;;;4968233;28;20047;-65
2023/09/27 01:56:26;;;;;;;13.93;10.77;;;;;;;;;;4976057;28;20043;-64
2023/09/27 01:58:54;;;;;;;14.68;10.43;;;;;;;;;;4970893;28;20047;-65
2023/09/27 02:01:20;;;;;;;16.77;11.40;;;;;;;;;;4964489;28;20089;-65
2023/09/27 02:03:47;;;;;;;15.32;12.43;;;;;;;;;;4969160;28;20046;-64
2023/09/27 02:06:13;;;;;;;16.23;11.73;;;;;;;;;;4976097;28;20574;-65
2023/09/27 02:08:40;;;;;;;17.10;12.90;;;;;;;;;;4975907;28;20098;-65
2023/09/27 02:11:07;;;;;;;18.88;13.02;;;;;;;;;;4967890;28;20742;-65
2023/09/27 02:13:34;;;;;;;17.15;12.43;;;;;;;;;;4975678;28;20138;-65
2023/09/27 02:16:02;;;;;;;17.75;12.65;;;;;;;;;;4975918;28;20129;-64
2023/09/27 02:18:29;;;;;;;17.02;11.82;;;;;;;;;;4975843;28;20130;-65
2023/09/27 02:20:55;;;;;;;16.88;12.20;;;;;;;;;;4962279;28;20124;-65
2023/09/27 02:23:22;;;;;;;17.35;12.98;;;;;;;;;;4965450;28;20059;-65
2023/09/27 02:25:57;;;;;;;16.23;11.25;;;;;;;;;;4975562;28;20051;-65
2023/09/27 02:28:24;;;;;;;16.20;10.80;;;;;;;;;;4966028;28;20046;-65
2023/09/27 02:30:50;;;;;;;15.13;10.80;;;;;;;;;;4960528;28;20127;-64
2023/09/27 02:33:19;;;;;;;15.85;11.45;;;;;;;;;;4980841;28;20082;-64
2023/09/27 02:35:45;;;;;;;15.00;11.07;;;;;;;;;;4971256;28;20047;-64
2023/09/27 02:38:12;;;;;;;14.43;11.07;;;;;;;;;;4971961;28;20130;-64
2023/09/27 02:40:39;;;;;;;16.35;11.73;;;;;;;;;;4963965;28;20062;-65
2023/09/27 02:43:06;;;;;;;16.88;12.00;;;;;;;;;;4971116;28;20054;-65
2023/09/27 02:45:34;;;;;;;16.52;11.75;;;;;;;;;;4977502;28;20050;-64
2023/09/27 02:48:02;;;;;;;18.85;11.65;;;;;;;;;;4968974;28;20057;-67
2023/09/27 02:50:30;;;;;;;13.68;9.77;;;;;;;;;;4965676;28;20046;-66
2023/09/27 02:52:57;;;;;;;13.10;9.82;;;;;;;;;;4961698;28;20106;-66
2023/09/27 02:55:23;;;;;;;13.65;10.27;;;;;;;;;;4964845;28;20575;-63
2023/09/27 02:57:52;;;;;;;13.18;9.23;;;;;;;;;;4963451;28;20426;-66
2023/09/27 03:00:19;;;;;;;14.73;9.93;;;;;;;;;;4956071;28;20134;-65
2023/09/27 03:02:46;;;;;;;13.35;9.50;;;;;;;;;;4965847;28;20047;-65
2023/09/27 03:05:13;;;;;;;14.07;10.15;;;;;;;;;;4975158;28;20407;-65
2023/09/27 03:07:41;;;;;;;14.90;10.85;;;;;;;;;;4975162;28;20138;-66
2023/09/27 03:10:10;;;;;;;12.18;9.18;;;;;;;;;;4974484;28;20078;-66
2023/09/27 03:12:38;;;;;;;12.23;10.00;;;;;;;;;;4974874;28;20442;-66
2023/09/27 03:15:10;;;;;;;13.63;11.38;;;;;;;;;;4966941;28;20097;-65
2023/09/27 03:17:36;;;;;;;14.70;9.63;;;;;;;;;;4971767;28;20078;-63
2023/09/27 03:20:07;;;;;;;12.70;9.80;;;;;;;;;;4955440;28;20460;-64
2023/09/27 03:22:33;;;;;;;;;;;;;;;;;;4963355;28;20054;-65
2023/09/27 03:25:02;;;;;;;13.98;9.23;;;;;;;;;;4968956;28;20009;-65
2023/09/27 03:27:28;;;;;;;10.68;8.10;;;;;;;;;;4971328;28;20047;-65
2023/09/27 03:29:55;;;;;;;12.05;8.05;;;;;;;;;;4974304;28;20055;-65
2023/09/27 03:32:21;;;;;;;11.20;8.45;;;;;;;;;;4974551;28;20114;-64
2023/09/27 03:34:48;;;;;;;9.95;8.20;;;;;;;;;;4974484;28;20421;-66
2023/09/27 03:37:15;;;;;;;10.40;8.00;;;;;;;;;;4974673;28;20053;-65
2023/09/27 03:39:42;;;;;;;10.27;7.50;;;;;;;;;;4974363;28;20483;-66
2023/09/27 03:42:11;;;;;;;11.20;7.95;;;;;;;;;;4974559;28;20054;-65
2023/09/27 03:44:38;;;;;;;10.90;8.02;;;;;;;;;;4974513;28;20510;-65
2023/09/27 03:47:05;;;;;;;10.10;7.43;;;;;;;;;;4974238;28;20057;-66
2023/09/27 03:49:31;;;;;;;9.90;7.53;;;;;;;;;;4978358;28;20050;-66
2023/09/27 03:51:58;;;;;;;11.50;8.43;;;;;;;;;;4960896;28;20043;-65
2023/09/27 03:54:25;;;;;;;10.05;7.60;;;;;;;;;;4955996;28;20078;-64
2023/09/27 03:56:52;;;;;;;9.27;7.15;;;;;;;;;;4974198;28;20513;-65
2023/09/27 03:59:20;;;;;;;9.48;7.80;;;;;;;;;;4973734;28;20057;-65
2023/09/27 04:01:46;;;;;;;9.25;7.05;;;;;;;;;;4973928;28;20138;-65
2023/09/27 04:04:13;;;;;;;8.07;6.75;;;;;;;;;;4973853;28;20054;-64
2023/09/27 04:06:40;;;;;;;10.57;7.50;;;;;;;;;;4973630;28;20558;-65
2023/09/27 04:09:08;;;;;;;9.70;7.72;;;;;;;;;;4967086;28;20047;-66
2023/09/27 04:11:34;;;;;;;9.27;7.32;;;;;;;;;;4973176;28;20073;-66
2023/09/27 04:14:01;;;;;;;9.82;6.88;;;;;;;;;;4973453;28;20134;-65
2023/09/27 04:16:30;;;;;;;11.18;7.70;;;;;;;;;;4973703;28;20057;-66
2023/09/27 04:18:57;;;;;;;11.25;7.35;;;;;;;;;;4973646;28;20054;-66
2023/09/27 04:21:24;;;;;;;9.43;7.45;;;;;;;;;;4963571;28;20137;-64
2023/09/27 04:23:55;;;;;;;10.85;7.43;;;;;;;;;;4962148;28;20388;-65
2023/09/27 04:26:23;;;;;;;10.20;7.43;;;;;;;;;;4971620;28;20058;-64
2023/09/27 04:28:50;;;;;;;11.73;7.95;;;;;;;;;;4973430;28;20075;-63
2023/09/27 04:31:17;;;;;;;12.07;8.18;;;;;;;;;;4973220;28;20047;-65
2023/09/27 04:33:45;;;;;;;11.02;8.00;;;;;;;;;;4973213;28;20135;-65
2023/09/27 04:36:15;;;;;;;9.63;7.30;;;;;;;;;;4973362;28;20097;-65
2023/09/27 04:38:42;;;;;;;11.23;8.93;;;;;;;;;;4973409;28;20101;-65
2023/09/27 04:41:09;;;;;;;11.40;8.07;;;;;;;;;;4973201;28;20057;-64
2023/09/27 04:43:36;;;;;;;13.75;8.18;;;;;;;;;;4973073;28;20054;-65
2023/09/27 04:46:03;;;;;;;9.80;7.22;;;;;;;;;;4966585;28;20137;-63
2023/09/27 04:48:30;;;;;;;11.43;7.97;;;;;;;;;;4971581;28;20483;-65
2023/09/27 04:50:59;;;;;;;11.45;7.88;;;;;;;;;;4972873;28;20550;-64
2023/09/27 04:53:26;;;;;;;10.93;8.73;;;;;;;;;;4963412;28;20133;-66
2023/09/27 04:55:53;;;;;;;10.38;7.88;;;;;;;;;;4964795;28;20547;-65
2023/09/27 04:58:20;;;;;;;13.90;8.63;;;;;;;;;;4973261;28;20046;-65
2023/09/27 05:00:47;;;;;;;12.70;8.95;;;;;;;;;;4973068;28;20047;-66
2023/09/27 05:03:13;;;;;;;12.80;9.88;;;;;;;;;;4965302;28;20061;-65
2023/09/27 05:05:40;;;;;;;13.95;9.85;;;;;;;;;;4965855;28;20134;-64
2023/09/27 05:08:08;;;;;;;14.85;10.63;;;;;;;;;;4972938;28;20093;-64
2023/09/27 05:10:36;;;;;;;14.38;9.70;;;;;;;;;;4969973;28;20102;-65
2023/09/27 05:13:03;;;;;;;13.60;10.55;;;;;;;;;;4953861;29;20055;-65
2023/09/27 05:15:29;;;;;;;15.63;10.65;;;;;;;;;;4955307;28;20424;-64
2023/09/27 05:17:56;;;;;;;14.18;10.40;;;;;;;;;;4973131;28;20057;-65
2023/09/27 05:20:23;;;;;;;16.27;10.57;;;;;;;;;;4972922;28;20447;-65
2023/09/27 05:22:50;;;;;;;14.55;10.68;;;;;;;;;;4972633;28;20057;-64
2023/09/27 05:25:18;;;;;;;13.13;9.90;;;;;;;;;;4973643;28;20525;-64
2023/09/27 05:27:45;;;;;;;14.85;9.95;;;;;;;;;;4976753;28;20116;-64
2023/09/27 05:30:12;;;;;;;12.82;9.52;;;;;;;;;;4976312;28;20049;-65
2023/09/27 05:32:39;;;;;;;14.02;10.32;;;;;;;;;;4976533;28;20053;-65
2023/09/27 05:35:06;;;;;;;14.52;10.57;;;;;;;;;;4976787;28;20146;-65
2023/09/27 05:37:33;;;;;;;15.70;10.13;;;;;;;;;;4976447;28;20139;-65
2023/09/27 05:40:04;;;;;;;12.60;9.25;;;;;;;;;;4972738;28;20043;-65
2023/09/27 05:42:31;;;;;;;;;;;;;;;;;;4977457;28;20058;-65
2023/09/27 05:44:58;;;;;;;13.75;9.10;;;;;;;;;;4984247;28;19933;-64
2023/09/27 05:47:25;;;;;;;12.43;8.70;;;;;;;;;;4987436;28;20051;-63
2023/09/27 05:49:51;;;;;;;12.90;8.80;;;;;;;;;;4991252;28;20070;-64
2023/09/27 05:52:19;;;;;;;17.08;11.30;;;;;;;;;;4991779;28;20051;-65
2023/09/27 05:54:46;;;;;;;18.98;10.75;;;;;;;;;;4988276;28;20085;-64
2023/09/27 05:57:14;;;;;;;15.55;10.57;;;;;;;;;;4987485;28;20414;-64
2023/09/27 05:59:44;;;;;;;15.85;11.38;;;;;;;;;;4980459;28;20082;-65
2023/09/27 06:02:16;;;;;;;17.42;10.65;;;;;;;;;;4991038;28;20054;-63
2023/09/27 06:04:43;;;;;;;16.55;11.48;;;;;;;;;;4986111;28;20046;-64
2023/09/27 06:07:13;;;;;;;13.63;9.73;;;;;;;;;;4994562;28;20492;-63
2023/09/27 06:09:40;;;;;;;13.90;9.98;;;;;;;;;;4964575;28;20074;-64
2023/09/27 06:12:10;;;;;;;13.60;9.30;;;;;;;;;;4971605;28;20046;-64
2023/09/27 06:14:37;;;;;;;15.93;9.63;;;;;;;;;;4965034;28;20047;-65
2023/09/27 06:17:06;;;;;;;15.02;10.35;;;;;;;;;;4976842;28;20125;-63
2023/09/27 06:19:33;;;;;;;17.08;11.27;;;;;;;;;;4992079;28;20126;-65
2023/09/27 06:22:00;;;;;;;14.43;10.68;;;;;;;;;;4980723;28;20057;-65
2023/09/27 06:24:29;;;;;;;15.63;10.65;;;;;;;;;;4967361;28;20055;-63
2023/09/27 06:26:55;;;;;;;15.35;10.35;;;;;;;;;;4967324;28;20086;-65
2023/09/27 06:29:22;;;;;;;13.35;8.32;;;;;;;;;;4966708;28;20487;-65
2023/09/27 06:31:50;;;;;;;13.63;8.77;;;;;;;;;;4964823;28;20418;-65
2023/09/27 06:34:18;;;;;;;10.43;8.13;;;;;;;;;;4970016;28;20061;-64
2023/09/27 06:36:48;;;;;;;14.07;9.38;;;;;;;;;;4972534;28;20072;-61
2023/09/27 06:39:16;;;;;;;13.90;9.27;;;;;;;;;;4966580;28;20418;-64
2023/09/27 06:41:44;;;;;;;14.70;10.40;;;;;;;;;;4968521;28;20050;-65
2023/09/27 06:44:12;;;;;;;14.48;10.80;;;;;;;;;;4974499;28;20052;-65
2023/09/27 06:46:39;;;;;;;15.95;11.20;;;;;;;;;;4973443;28;20541;-65
2023/09/27 06:49:07;;;;;;;14.18;11.20;;;;;;;;;;4974507;28;20061;-65
2023/09/27 06:51:35;;;;;;;12.52;9.77;;;;;;;;;;4972190;28;20458;-63
2023/09/27 06:54:03;;;;;;;17.40;12.05;;;;;;;;;;4971216;28;20051;-65
2023/09/27 06:56:29;;;;;;;22.67;11.73;;;;;;;;;;4973259;28;20487;-65
2023/09/27 06:58:56;;;;;;;19.00;10.75;;;;;;;;;;4966105;28;20043;-63
2023/09/27 07:01:24;;;;;;;15.00;10.50;;;;;;;;;;4972491;28;20081;-65
2023/09/27 07:03:51;;;;;;;15.32;9.95;;;;;;;;;;4974353;28;20049;-65
2023/09/27 07:06:18;;;;;;;13.27;10.77;;;;;;;;;;4974361;28;20421;-63
2023/09/27 07:08:52;;;;;;;13.13;9.35;;;;;;;;;;4966794;28;20121;-64
2023/09/27 07:11:20;;;;;;;14.30;9.32;;;;;;;;;;4980312;28;20438;-64
2023/09/27 07:13:47;;;;;;;14.77;9.95;;;;;;;;;;4980027;28;20049;-64
2023/09/27 07:16:21;;;;;;;14.30;9.38;;;;;;;;;;4963239;28;20150;-64
2023/09/27 07:18:49;;;;;;;15.68;10.57;;;;;;;;;;4989890;28;20069;-64
2023/09/27 07:21:17;;;;;;;12.60;9.88;;;;;;;;;;4973506;28;20134;-65
2023/09/27 07:23:43;;;;;;;18.73;11.07;;;;;;;;;;4963329;28;20371;-64
2023/09/27 07:26:11;;;;;;;16.77;11.07;;;;;;;;;;4954781;28;20051;-64
2023/09/27 07:28:38;;;;;;;18.17;11.60;;;;;;;;;;4962804;28;20424;-64
2023/09/27 07:31:05;;;;;;;14.68;9.48;;;;;;;;;;4954388;28;20047;-64
2023/09/27 07:33:32;;;;;;;16.70;10.85;;;;;;;;;;4956692;28;20562;-65
2023/09/27 07:35:59;;;;;;;16.25;9.60;;;;;;;;;;4966127;28;20554;-64
2023/09/27 07:38:26;;;;;;;14.88;10.57;;;;;;;;;;4972688;28;20066;-64
2023/09/27 07:40:52;;;;;;;16.70;11.20;;;;;;;;;;4962593;28;20427;-65
2023/09/27 07:43:20;;;;;;;14.60;9.73;;;;;;;;;;4962291;28;20051;-64
2023/09/27 07:45:47;;;;;;;15.07;10.15;;;;;;;;;;4962293;28;20058;-64
2023/09/27 07:48:14;;;;;;;14.05;10.43;;;;;;;;;;4955788;28;20126;-65
2023/09/27 07:50:41;;;;;;;15.60;10.63;;;;;;;;;;4987148;28;20047;-62
2023/09/27 07:53:08;;;;;;;16.35;10.90;;;;;;;;;;4988272;28;20569;-57
2023/09/27 07:55:43;;;;;;;15.23;10.95;;;;;;;;;;4987501;28;20391;-62
2023/09/27 07:58:12;;;;;;;17.48;11.68;;;;;;;;;;4990128;28;20467;-62
2023/09/27 08:00:40;;;;;;;15.38;11.32;;;;;;;;;;4985758;28;20098;-60
2023/09/27 08:03:08;;;;;;;16.88;10.73;;;;;;;;;;4973300;28;20043;-61
2023/09/27 08:05:42;;;;;;;16.23;11.60;;;;;;;;;;4960609;28;20039;-63
2023/09/27 08:08:10;;;;;;;15.82;11.52;;;;;;;;;;4966037;28;20482;-64
2023/09/27 08:10:43;;;;;;;16.50;11.82;;;;;;;;;;4964615;28;20051;-64
2023/09/27 08:13:12;;;;;;;14.15;10.90;;;;;;;;;;4964262;28;20126;-65
2023/09/27 08:15:41;;;;;;;16.10;11.57;;;;;;;;;;4962681;28;20049;-65
2023/09/27 08:18:08;;;;;;;13.10;10.68;;;;;;;;;;4973831;28;20069;-66
2023/09/27 08:20:35;;;;;;;16.73;11.35;;;;;;;;;;4969054;28;20042;-66
2023/09/27 08:23:02;;;;;;;13.68;10.30;;;;;;;;;;4965175;28;20082;-64
2023/09/27 08:25:28;;;;;;;15.63;11.60;;;;;;;;;;4965625;28;20469;-67
2023/09/27 08:27:56;;;;;;;15.35;11.20;;;;;;;;;;4964728;28;20372;-65
2023/09/27 08:30:22;;;;;;;15.73;10.85;;;;;;;;;;4965747;28;20069;-65
2023/09/27 08:32:51;;;;;;;13.25;11.00;;;;;;;;;;4966306;28;20106;-65
2023/09/27 08:35:18;;;;;;;14.73;10.35;;;;;;;;;;4965275;28;20047;-64
2023/09/27 08:37:44;;;;;;;16.25;11.00;;;;;;;;;;4965776;28;20050;-64
2023/09/27 08:40:13;;;;;;;13.90;10.13;;;;;;;;;;4964798;28;20113;-66
2023/09/27 08:42:41;;;;;;;14.77;11.18;;;;;;;;;;4963692;28;20042;-64
2023/09/27 08:45:10;;;;;;;14.45;10.82;;;;;;;;;;4965089;28;20109;-65
2023/09/27 08:47:39;;;;;;;14.77;10.80;;;;;;;;;;4962808;28;20146;-64
2023/09/27 08:50:08;;;;;;;16.85;10.32;;;;;;;;;;4967743;28;20375;-64
2023/09/27 08:52:35;;;;;;;16.38;11.40;;;;;;;;;;4964544;28;20514;-64
2023/09/27 08:55:03;;;;;;;13.25;10.13;;;;;;;;;;4969216;28;20050;-65
2023/09/27 08:57:31;;;;;;;16.30;12.27;;;;;;;;;;4981797;28;20046;-66
2023/09/27 08:59:57;;;;;;;18.05;12.10;;;;;;;;;;4968722;28;20322;-65
2023/09/27 09:02:25;;;;;;;16.77;12.52;;;;;;;;;;4976876;28;20097;-66
2023/09/27 09:04:52;;;;;;;14.90;11.13;;;;;;;;;;4980975;28;20404;-65
2023/09/27 09:07:20;;;;;;;16.67;12.88;;;;;;;;;;4963980;28;20078;-65
2023/09/27 09:09:46;;;;;;;16.63;12.10;;;;;;;;;;4960467;28;20057;-66
2023/09/27 09:12:13;;;;;;;16.88;12.23;;;;;;;;;;4966163;28;20418;-64
2023/09/27 09:14:43;;;;;;;14.25;10.77;;;;;;;;;;4981733;28;20089;-64
2023/09/27 09:17:14;;;;;;;16.77;11.80;;;;;;;;;;4963539;28;20046;-64
2023/09/27 09:19:42;;;;;;;17.17;12.60;;;;;;;;;;4969973;28;20058;-65
2023/09/27 09:22:11;;;;;;;19.67;12.07;;;;;;;;;;4966845;28;20050;-65
2023/09/27 09:24:41;;;;;;;16.40;12.05;;;;;;;;;;4960344;28;20054;-66
2023/09/27 09:27:09;;;;;;;15.77;11.55;;;;;;;;;;4968847;28;20109;-64
2023/09/27 09:29:54;;;;;;;17.52;11.73;;;;;;;;;;4978017;28;20050;-65
2023/09/27 09:32:22;;;;;;;19.60;13.23;;;;;;;;;;4965338;28;20051;-65
2023/09/27 09:34:50;;;;;;;21.05;13.35;;;;;;;;;;4963642;28;20129;-65
2023/09/27 09:37:18;;;;;;;15.77;11.77;;;;;;;;;;4966510;28;20047;-65
2023/09/27 09:39:48;;;;;;;18.02;13.65;;;;;;;;;;4962576;28;20062;-65
2023/09/27 09:42:29;;;;;;;18.92;12.35;;;;;;;;;;4961535;28;20053;-63
2023/09/27 09:44:59;;;;;;;15.38;11.60;;;;;;;;;;4973797;28;20055;-64
2023/09/27 09:47:26;;;;;;;19.58;12.15;;;;;;;;;;4969140;28;20051;-65
2023/09/27 09:49:53;;;;;;;20.85;13.65;;;;;;;;;;4974754;28;20157;-65
2023/09/27 09:52:26;;;;;;;16.92;13.27;;;;;;;;;;4969939;28;20047;-65
2023/09/27 09:54:58;;;;;;;16.52;13.02;;;;;;;;;;4954518;28;20134;-66
2023/09/27 09:57:33;;;;;;;17.05;12.00;;;;;;;;;;4958445;28;20130;-64
2023/09/27 10:00:11;;;;;;;16.23;11.93;;;;;;;;;;4962214;28;20065;-65
2023/09/27 10:02:45;;;;;;;16.95;12.52;;;;;;;;;;4971793;28;20414;-65
2023/09/27 10:05:14;;;;;;;19.15;12.95;;;;;;;;;;4964228;28;20047;-64
2023/09/27 10:07:43;;;;;;;20.00;14.38;;;;;;;;;;4967846;28;20051;-64
2023/09/27 10:10:13;;;;;;;19.52;14.05;;;;;;;;;;4969108;28;20053;-65
2023/09/27 10:12:41;;;;;;;18.92;13.27;;;;;;;;;;4973195;28;20485;-66
2023/09/27 10:15:09;;;;;;;19.00;13.25;;;;;;;;;;4970886;28;20043;-66
2023/09/27 10:17:36;;;;;;;20.02;14.90;;;;;;;;;;4974157;28;20058;-65
2023/09/27 10:20:12;;;;;;;19.92;14.57;;;;;;;;;;4969022;28;20130;-65
2023/09/27 10:22:40;;;;;;;22.13;14.30;;;;;;;;;;4972734;28;20058;-66
2023/09/27 10:25:32;;;;;;;20.13;13.98;;;;;;;;;;4970183;28;20058;-65
2023/09/27 10:28:06;;;;;;;23.45;16.20;;;;;;;;;;4968141;28;20043;-65
2023/09/27 10:31:09;;;;;;;21.38;15.80;;;;;;;;;;4971229;28;20051;-65
2023/09/27 10:33:38;;;;;;;22.60;14.43;;;;;;;;;;4963775;28;20049;-65
2023/09/27 10:36:27;;;;;;;20.55;14.23;;;;;;;;;;4962422;28;20181;-66
2023/09/27 10:39:02;;;;;;;19.73;14.52;;;;;;;;;;4969384;28;20043;-67
2023/09/27 10:41:46;;;;;;;22.63;15.73;;;;;;;;;;4971851;28;20118;-68
2023/09/27 10:44:13;;;;;;;36.47;18.83;;;;;;;;;;4958392;28;20047;-69
2023/09/27 10:46:43;;;;;;;28.90;17.70;;;;;;;;;;4970225;28;20562;-66
2023/09/27 10:49:10;;;;;;;25.13;15.75;;;;;;;;;;4963789;28;20066;-65
2023/09/27 10:51:37;;;;;;;22.00;16.02;;;;;;;;;;4969438;28;20131;-63
2023/09/27 10:54:08;;;;;;;21.23;13.95;;;;;;;;;;4960980;28;20050;-64
2023/09/27 10:56:35;;;;;;;20.33;14.75;;;;;;;;;;4974741;28;20066;-65
2023/09/27 10:59:03;;;;;;;21.80;14.57;;;;;;;;;;4966372;28;20057;-64
2023/09/27 11:01:29;;;;;;;19.23;13.40;;;;;;;;;;4966250;28;20047;-64
2023/09/27 11:03:59;;;;;;;20.67;14.15;;;;;;;;;;4970725;28;20133;-64
2023/09/27 11:06:26;;;;;;;20.73;14.98;;;;;;;;;;4971742;28;20486;-65
2023/09/27 11:09:04;;;;;;;19.52;13.32;;;;;;;;;;4968400;28;20075;-65
2023/09/27 11:11:31;;;;;;;18.27;12.63;;;;;;;;;;4964877;28;20054;-65
2023/09/27 11:13:58;;;;;;;19.13;13.50;;;;;;;;;;4969019;28;20051;-66
2023/09/27 11:16:26;;;;;;;18.25;12.90;;;;;;;;;;4972306;28;20070;-65
2023/09/27 11:18:56;;;;;;;18.30;12.55;;;;;;;;;;4963796;28;20047;-65
2023/09/27 11:21:26;;;;;;;18.17;12.60;;;;;;;;;;4971443;28;20053;-65
2023/09/27 11:23:54;;;;;;;17.40;13.00;;;;;;;;;;4964236;28;20499;-65
2023/09/27 11:26:21;;;;;;;20.50;13.07;;;;;;;;;;4965515;28;20472;-65
2023/09/27 11:28:56;;;;;;;18.25;13.73;;;;;;;;;;4966750;28;20047;-66
2023/09/27 11:31:23;;;;;;;15.63;12.00;;;;;;;;;;4966156;28;20485;-64
2023/09/27 11:33:51;;;;;;;19.38;12.65;;;;;;;;;;4964913;28;20047;-65
2023/09/27 11:36:18;;;;;;;18.38;12.77;;;;;;;;;;4969636;28;20134;-65
2023/09/27 11:38:49;;;;;;;16.30;12.23;;;;;;;;;;4964549;28;20302;-66
2023/09/27 11:41:16;;;;;;;16.33;12.02;;;;;;;;;;4968124;28;20047;-65
2023/09/27 11:43:45;;;;;;;15.77;12.23;;;;;;;;;;4982327;28;20117;-66
2023/09/27 11:46:11;;;;;;;17.23;12.70;;;;;;;;;;4969922;28;20046;-65
2023/09/27 11:48:39;;;;;;;17.38;12.27;;;;;;;;;;4969085;28;20139;-65
2023/09/27 11:51:07;;;;;;;19.00;12.80;;;;;;;;;;4966516;28;20047;-64
2023/09/27 11:53:34;;;;;;;17.08;11.00;;;;;;;;;;4974743;28;20050;-67
2023/09/27 11:56:01;;;;;;;16.10;12.05;;;;;;;;;;4972125;28;20082;-64
2023/09/27 11:58:28;;;;;;;18.70;12.90;;;;;;;;;;4975236;28;20077;-65
2023/09/27 12:00:54;;;;;;;15.23;11.65;;;;;;;;;;4970467;28;20051;-64
2023/09/27 12:03:21;;;;;;;15.60;11.00;;;;;;;;;;4973845;28;20410;-65
2023/09/27 12:05:48;;;;;;;15.20;11.95;;;;;;;;;;4973533;28;20049;-65
2023/09/27 12:08:16;;;;;;;16.77;11.85;;;;;;;;;;4962399;28;20047;-64
2023/09/27 12:10:42;;;;;;;15.25;11.18;;;;;;;;;;4966340;28;20114;-64
2023/09/27 12:13:09;;;;;;;14.98;10.75;;;;;;;;;;4965647;28;20133;-64
2023/09/27 12:15:36;;;;;;;14.27;10.77;;;;;;;;;;4974151;28;20078;-66
2023/09/27 12:18:03;;;;;;;13.48;9.07;;;;;;;;;;4973785;28;20137;-66
2023/09/27 12:20:30;;;;;;;11.05;8.43;;;;;;;;;;4965673;28;20197;-65
2023/09/27 12:22:57;;;;;;;12.13;8.30;;;;;;;;;;4964065;28;20050;-65
2023/09/27 12:25:25;;;;;;;10.77;8.52;;;;;;;;;;4968620;28;20133;-65
2023/09/27 12:27:52;;;;;;;12.18;7.68;;;;;;;;;;4967821;28;20039;-66
2023/09/27 12:30:19;;;;;;;10.07;8.10;;;;;;;;;;4973179;28;20404;-66
2023/09/27 12:32:45;;;;;;;10.55;8.27;;;;;;;;;;4965519;28;20496;-65
2023/09/27 12:35:12;;;;;;;9.98;7.65;;;;;;;;;;4970608;28;20133;-65
2023/09/27 12:37:39;;;;;;;9.35;7.35;;;;;;;;;;4967692;28;20051;-66
2023/09/27 12:40:07;;;;;;;10.80;7.22;;;;;;;;;;4970226;28;20078;-66
2023/09/27 12:42:35;;;;;;;12.65;10.70;;;;;;;;;;4965641;28;20094;-65
2023/09/27 12:45:03;;;;;;;15.07;8.50;;;;;;;;;;4966311;28;20043;-66
2023/09/27 12:47:30;;;;;;;8.80;6.85;;;;;;;;;;4967700;28;20046;-66
2023/09/27 12:49:58;;;;;;;9.52;6.93;;;;;;;;;;4961526;28;20134;-66
2023/09/27 12:52:24;;;;;;;12.38;8.07;;;;;;;;;;4965349;28;20058;-65
2023/09/27 12:54:52;;;;;;;12.50;8.07;;;;;;;;;;4969110;28;20079;-65
2023/09/27 12:57:18;;;;;;;9.93;7.38;;;;;;;;;;4971531;28;20055;-65
2023/09/27 12:59:47;;;;;;;10.52;7.68;;;;;;;;;;4969711;28;20057;-66
2023/09/27 13:02:13;;;;;;;8.57;6.45;;;;;;;;;;4973250;28;20051;-66
2023/09/27 13:04:40;;;;;;;9.63;7.03;;;;;;;;;;4969524;28;20417;-66
2023/09/27 13:07:07;;;;;;;9.02;7.00;;;;;;;;;;4965999;28;20479;-65
2023/09/27 13:09:34;;;;;;;10.43;7.47;;;;;;;;;;4971082;28;20082;-66
2023/09/27 13:12:00;;;;;;;10.57;7.68;;;;;;;;;;4967067;28;20521;-66
2023/09/27 13:14:27;;;;;;;8.75;6.97;;;;;;;;;;4955654;28;20081;-65
2023/09/27 13:16:56;;;;;;;7.80;6.45;;;;;;;;;;4965496;28;20483;-65
2023/09/27 13:19:23;;;;;;;9.98;7.32;;;;;;;;;;4972799;28;20082;-66
2023/09/27 13:21:49;;;;;;;9.95;7.20;;;;;;;;;;4968156;28;20430;-64
2023/09/27 13:24:16;;;;;;;8.23;6.35;;;;;;;;;;4968438;28;20542;-66
2023/09/27 13:26:43;;;;;;;8.20;6.88;;;;;;;;;;4966792;28;20132;-66
2023/09/27 13:29:09;;;;;;;9.65;6.60;;;;;;;;;;4957305;28;20512;-65
2023/09/27 13:31:36;;;;;;;9.75;6.40;;;;;;;;;;4967661;28;20418;-64
2023/09/27 13:34:04;;;;;;;9.05;6.82;;;;;;;;;;4966058;28;20130;-66
2023/09/27 13:36:36;;;;;;;8.98;6.65;;;;;;;;;;4962713;28;20051;-65
2023/09/27 13:39:05;;;;;;;7.70;6.13;;;;;;;;;;4968551;28;20447;-65
2023/09/27 13:41:32;;;;;;;7.40;6.00;;;;;;;;;;4962707;28;20086;-66
2023/09/27 13:43:59;;;;;;;9.80;6.25;;;;;;;;;;4965556;28;20141;-65
2023/09/27 13:46:25;;;;;;;11.13;6.65;;;;;;;;;;4965520;28;20051;-64
2023/09/27 13:48:52;;;;;;;7.57;6.43;;;;;;;;;;4968427;28;20051;-65
2023/09/27 13:51:20;;;;;;;8.50;6.00;;;;;;;;;;4969164;28;20443;-64
2023/09/27 13:53:47;;;;;;;7.65;5.88;;;;;;;;;;4969256;28;20053;-64
2023/09/27 13:56:13;;;;;;;10.45;6.30;;;;;;;;;;4963531;28;20080;-65
2023/09/27 13:58:41;;;;;;;7.43;5.93;;;;;;;;;;4970760;28;20107;-65
2023/09/27 14:01:09;;;;;;;8.57;6.18;;;;;;;;;;4984176;28;20045;-64
2023/09/27 14:03:35;;;;;;;9.82;5.57;;;;;;;;;;4978991;28;20128;-63
2023/09/27 14:06:03;;;;;;;8.65;5.38;;;;;;;;;;4962486;28;20129;-65
2023/09/27 14:08:31;;;;;;;6.43;4.82;;;;;;;;;;4976249;28;20089;-66
2023/09/27 14:10:58;;;;;;;7.88;5.38;;;;;;;;;;4971913;28;20049;-65
2023/09/27 14:13:26;;;;;;;11.82;5.13;;;;;;;;;;4975617;28;20384;-64
2023/09/27 14:15:53;;;;;;;6.53;4.65;;;;;;;;;;4969994;28;20058;-64
2023/09/27 14:18:20;;;;;;;6.72;4.35;;;;;;;;;;4979273;28;20403;-64
2023/09/27 14:20:47;;;;;;;6.50;4.13;;;;;;;;;;4978352;28;20043;-66
2023/09/27 14:23:13;;;;;;;7.05;4.20;;;;;;;;;;4977294;28;20137;-65
2023/09/27 14:25:42;;;;;;;6.57;4.70;;;;;;;;;;4978869;28;20129;-65
2023/09/27 14:28:10;;;;;;;7.20;4.93;;;;;;;;;;4975708;28;20062;-65